Latest Weather Observations for Cape Moreton

IDQ60801

Issued at 1:02 pm EST Wednesday 4 March 2015 (issued every 30 minutes, with the page automatically refreshed every 10 minutes)

About weather observations | Map of weather stations | Latest weather observations for QLD | Other Formats
Station Details ID: 040043 Name: CAPE MORETON LIGHTHOUSE Lat: -27.03 Lon: 153.47 Height: 99.9 m
Data from the previous 72 hours. | See also: Recent months at Cape Moreton
Date/Time
EST
Temp
°C
App
Temp
°C
Dew
Point
Rel
Hum
%
Delta-T
°C
Wind Press
QNH
hPa
Press
MSL
hPa
Rain
since 9 am
mm
Dir
 
Spd
km/h
Gust
km/h
Spd
kts
Gust
kts
04/01:00pm 28.0 29.0 19.5 60 5.5 E 13 15 7 8 1013.5 1013.0 0.0
04/12:30pm 28.3 30.2 19.8 60 5.6 ENE 9 13 5 7 1013.8 1013.3 0.0
04/12:00pm 27.4 28.5 18.9 59 5.5 ENE 11 13 6 7 1014.1 1013.6 0.0
04/11:30am 27.5 28.4 18.5 58 5.8 ENE 11 13 6 7 1014.5 1014.0 0.0
04/11:00am 27.4 28.2 18.1 57 5.9 E 11 13 6 7 1014.7 1014.2 0.0
04/10:30am 28.2 28.8 18.6 56 6.2 SE 13 19 7 10 1015.0 1014.5 0.0
04/10:00am 28.3 28.8 18.4 55 6.4 SE 13 17 7 9 1015.1 1014.6 0.0
04/09:30am 28.0 29.2 19.0 58 5.8 SE 11 17 6 9 1015.2 1014.7 0.0
04/09:00am 27.7 28.7 18.7 58 5.8 SE 11 17 6 9 1015.1 1014.6 0.0
04/08:30am 26.7 27.2 17.5 57 5.8 ESE 11 13 6 7 1015.0 1014.5 0.0
04/08:00am 26.9 28.0 17.9 57 5.7 ESE 9 13 5 7 1014.7 1014.2 0.0
04/07:30am 26.0 26.9 17.6 60 5.3 ESE 9 11 5 6 1014.3 1013.8 0.0
04/07:00am 25.8 27.0 18.2 63 4.8 ESE 9 13 5 7 1014.0 1013.5 0.0
04/06:30am 24.5 25.7 18.2 68 4.0 SE 9 11 5 6 1013.8 1013.3 0.0
04/06:00am 23.3 24.1 18.2 73 3.2 ESE 11 13 6 7 1013.5 1013.0 0.0
04/05:30am 23.0 23.2 17.7 72 3.3 ESE 13 15 7 8 1013.3 1012.8 0.0
04/05:00am 23.0 22.9 17.9 73 3.2 E 15 19 8 10 1013.1 1012.6 0.0
04/04:30am 23.1 23.5 18.2 74 3.1 E 13 17 7 9 1013.1 1012.6 0.0
04/04:00am 23.3 23.4 18.4 74 3.1 ESE 15 19 8 10 1012.9 1012.4 0.0
04/03:30am 23.2 22.9 18.3 74 3.1 ESE 17 19 9 10 1013.0 1012.5 0.0
04/03:00am 23.4 23.6 18.5 74 3.1 ESE 15 19 8 10 1013.3 1012.8 0.0
04/02:30am 23.4 23.6 18.5 74 3.1 ESE 15 19 8 10 1013.7 1013.2 0.0
04/02:00am 23.5 23.7 18.6 74 3.1 ESE 15 20 8 11 1013.9 1013.4 0.0
04/01:30am 23.5 23.3 18.4 73 3.2 ESE 17 20 9 11 1014.2 1013.7 0.0
04/01:00am 23.6 23.3 18.3 72 3.3 ESE 17 22 9 12 1014.6 1014.1 0.0
04/12:30am 23.9 22.9 18.8 73 3.2 ESE 22 26 12 14 1015.0 1014.5 0.0
04/12:00am 24.0 23.5 19.1 74 3.1 ESE 20 24 11 13 1015.3 1014.8 0.0
 
Date/Time
EST
Temp
°C
App
Temp
°C
Dew
Point
Rel
Hum
%
Delta-T
°C
Wind Press
QNH
hPa
Press
MSL
hPa
Rain
since 9 am
mm
Dir
 
Spd
km/h
Gust
km/h
Spd
kts
Gust
kts
03/11:30pm 24.1 23.2 19.0 73 3.3 ESE 22 28 12 15 1015.6 1015.1 0.0
03/11:00pm 24.1 22.8 19.0 73 3.3 ESE 24 28 13 15 1015.6 1015.1 0.0
03/10:30pm 24.2 22.9 19.1 73 3.3 ESE 24 30 13 16 1015.7 1015.2 0.0
03/10:00pm 24.2 22.6 19.3 74 3.1 ESE 26 32 14 17 1015.5 1015.0 0.0
03/09:30pm 24.1 22.4 19.0 73 3.3 ESE 26 30 14 16 1015.5 1015.0 0.0
03/09:00pm 24.1 22.4 19.0 73 3.3 ESE 26 32 14 17 1015.4 1014.9 0.0
03/08:30pm 24.2 22.9 19.1 73 3.3 ESE 24 30 13 16 1015.3 1014.8 0.0
03/08:00pm 24.3 22.9 18.9 72 3.4 ESE 24 30 13 16 1014.9 1014.4 0.0
03/07:30pm 24.2 22.9 19.1 73 3.3 ESE 24 28 13 15 1014.7 1014.2 0.0
03/07:00pm 24.3 23.0 19.1 73 3.3 ESE 24 28 13 15 1014.3 1013.8 0.0
03/06:30pm 24.4 23.2 19.2 73 3.3 ESE 24 30 13 16 1014.2 1013.7 0.0
03/06:00pm 24.7 23.1 19.1 71 3.6 ESE 26 30 14 16 1013.9 1013.4 0.0
03/05:30pm 25.1 23.4 19.0 69 3.9 ESE 26 30 14 16 1013.9 1013.4 0.0
03/05:00pm 25.3 23.4 18.5 66 4.3 ESE 26 32 14 17 1013.6 1013.1 0.0
03/04:30pm 25.7 23.7 19.1 67 4.2 ESE 28 33 15 18 1013.6 1013.1 0.0
03/04:00pm 25.9 23.9 19.1 66 4.4 ESE 28 35 15 19 1013.4 1012.9 0.0
03/03:30pm 26.1 24.0 19.0 65 4.6 ESE 28 35 15 19 1013.5 1013.0 0.0
03/03:00pm 26.4 24.1 18.5 62 5.0 SE 28 32 15 17 1013.6 1013.1 0.0
03/02:30pm 26.6 24.2 18.2 60 5.3 ESE 28 32 15 17 1013.6 1013.1 0.0
03/02:00pm 26.7 24.1 18.6 61 5.2 SE 30 37 16 20 1013.9 1013.4 0.0
03/01:30pm 26.6 24.0 19.5 65 4.6 ESE 32 35 17 19 1014.2 1013.7 0.0
03/01:00pm 27.1 24.5 19.4 62 5.0 ESE 32 37 17 20 1014.4 1013.9 0.0
03/12:30pm 27.4 24.7 19.2 61 5.3 ESE 32 39 17 21 1014.7 1014.2 0.0
03/12:00pm 27.7 25.1 19.5 61 5.3 ESE 32 35 17 19 1015.2 1014.7 0.0
03/11:30am 27.4 24.3 18.9 59 5.5 ESE 33 39 18 21 1015.3 1014.8 0.0
03/11:00am 27.5 23.9 17.7 55 6.2 SE 33 37 18 20 1015.7 1015.2 0.0
03/10:30am 27.5 25.4 19.0 59 5.5 SE 28 33 15 18 1015.9 1015.4 0.0
03/10:00am 27.3 24.4 18.0 56 5.9 SE 30 37 16 20 1015.9 1015.4 0.0
03/09:30am 27.3 24.5 19.1 61 5.3 SE 32 39 17 21 1015.8 1015.3 0.0
03/09:00am 26.9 23.6 19.3 63 4.9 SE 35 41 19 22 1015.6 1015.1 0.0
03/08:30am 27.0 23.7 18.3 59 5.6 SE 33 39 18 21 1015.4 1014.9 0.0
03/08:00am 26.6 23.2 19.0 63 4.9 SE 35 41 19 22 1015.1 1014.6 0.0
03/07:30am 26.3 23.8 19.7 67 4.3 ESE 32 37 17 20 1014.8 1014.3 0.0
03/07:00am 25.7 22.4 18.4 64 4.6 SE 33 39 18 21 1014.6 1014.1 0.0
03/06:30am 25.2 22.6 19.6 71 3.6 ESE 32 41 17 22 1014.5 1014.0 0.0
03/06:00am 24.6 21.3 19.2 72 3.5 SE 35 41 19 22 1014.2 1013.7 0.0
03/05:30am 24.4 21.3 19.7 75 3.0 ESE 35 43 19 23 1014.1 1013.6 0.0
03/05:00am 24.4 20.7 19.2 73 3.3 ESE 37 41 20 22 1013.8 1013.3 0.0
03/04:30am 24.3 20.8 19.6 75 3.0 ESE 37 44 20 24 1013.5 1013.0 0.0
03/04:00am 24.5 20.8 20.0 76 2.9 ESE 39 46 21 25 1013.3 1012.8 0.0
03/03:30am 24.5 20.3 19.8 75 3.0 ESE 41 46 22 25 1013.2 1012.7 0.0
03/03:00am 24.5 21.0 20.4 78 2.7 ESE 39 46 21 25 1013.0 1012.5 0.0
03/02:30am 24.6 21.1 20.3 77 2.8 ESE 39 46 21 25 1013.2 1012.7 0.0
03/02:00am 24.6 20.2 20.1 76 2.9 SE 43 50 23 27 1013.3 1012.8 0.0
03/01:30am 24.5 20.4 20.8 80 2.4 SE 43 52 23 28 1013.5 1013.0 0.0
03/01:00am 24.7 21.0 20.8 79 2.6 SE 41 48 22 26 1013.9 1013.4 0.0
03/12:30am 24.8 20.1 20.7 78 2.7 SE 46 52 25 28 1014.0 1013.5 0.0
03/12:00am 24.7 21.3 20.6 78 2.7 SE 39 48 21 26 1014.2 1013.7 0.0
 
Date/Time
EST
Temp
°C
App
Temp
°C
Dew
Point
Rel
Hum
%
Delta-T
°C
Wind Press
QNH
hPa
Press
MSL
hPa
Rain
since 9 am
mm
Dir
 
Spd
km/h
Gust
km/h
Spd
kts
Gust
kts
02/11:30pm 24.8 20.0 20.5 77 2.8 SE 46 54 25 29 1014.4 1013.9 0.0
02/11:00pm 24.8 21.0 21.3 81 2.3 SE 43 50 23 27 1014.6 1014.1 0.0
02/10:30pm 25.0 20.9 21.1 79 2.6 SE 44 52 24 28 1014.6 1014.1 0.0
02/10:00pm 24.9 20.3 20.8 78 2.7 SE 46 52 25 28 1014.4 1013.9 0.0
02/09:30pm 24.9 20.7 20.6 77 2.8 SE 43 52 23 28 1014.6 1014.1 0.0
02/09:00pm 25.0 19.8 20.5 76 2.9 SE 48 56 26 30 1014.3 1013.8 0.0
02/08:30pm 25.0 20.9 21.1 79 2.6 SE 44 52 24 28 1014.0 1013.5 0.0
02/08:00pm 25.0 19.8 20.5 76 2.9 SE 48 56 26 30 1013.9 1013.4 0.0
02/07:30pm 24.9 20.1 20.4 76 2.9 SE 46 52 25 28 1013.5 1013.0 0.0
02/07:00pm 24.9 19.4 20.6 77 2.8 SE 50 57 27 31 1013.0 1012.5 0.0
02/06:30pm 24.4 22.3 22.3 88 1.4 SE 37 46 20 25 1012.8 1012.3 0.0
02/06:00pm 23.1 20.4 21.2 89 1.3 SE 37 48 20 26 1012.7 1012.2 0.0
02/05:30pm 24.1 18.0 21.0 83 2.0 SE 54 67 29 36 1011.8 1011.4 0.0
02/05:00pm 24.3 18.8 21.4 84 1.9 SE 52 63 28 34 1011.4 1010.9 0.0
02/04:30pm 24.5 17.7 20.6 79 2.6 SE 57 67 31 36 1011.2 1010.7 0.0
02/04:20pm 25.5 21.5 22.0 81 2.3 SE 46 65 25 35 1011.4 1010.9 0.0
02/04:00pm 25.7 21.2 21.8 79 2.6 SE 48 56 26 30 1011.2 1010.7 0.0
02/03:30pm 26.1 22.2 22.2 79 2.6 SE 46 54 25 29 1010.9 1010.4 0.0
02/03:00pm 26.1 20.8 21.7 77 2.9 SE 52 59 28 32 1010.9 1010.4 0.0
02/02:30pm 26.1 21.4 21.5 76 3.1 SE 48 54 26 29 1011.2 1010.7 0.0
02/02:00pm 26.0 19.9 21.7 77 2.9 SE 56 67 30 36 1011.3 1010.8 0.0
02/01:30pm 26.3 21.0 21.7 76 3.1 SE 52 57 28 31 1011.7 1011.2 0.0
02/01:00pm 26.5 21.7 21.9 76 3.1 SE 50 59 27 32 1011.8 1011.4 0.0
02/12:30pm 26.3 19.7 21.7 76 3.1 SSE 59 65 32 35 1012.0 1011.6 0.0
02/12:00pm 26.6 21.1 22.0 76 3.1 SSE 54 65 29 35 1012.4 1012.0 0.0
02/11:30am 26.2 20.2 21.8 77 2.9 SSE 56 65 30 35 1012.3 1011.9 0.0
02/11:00am 26.4 23.1 22.3 78 2.8 SSE 43 54 23 29 1012.9 1012.4 0.0
02/10:30am 26.7 23.5 22.5 78 2.8 SSE 43 50 23 27 1013.0 1012.5 0.0
02/10:23am 26.3 23.6 21.9 77 3.0 SSE 39 50 21 27 1013.0 1012.5 0.0
02/10:00am 27.5 27.6 21.8 71 3.8 SSE 24 32 13 17 1013.1 1012.6 0.0
02/09:30am 27.4 27.4 21.7 71 3.8 SE 24 30 13 16 1013.2 1012.7 0.0
02/09:00am 28.2 29.2 22.2 70 4.1 SE 20 26 11 14 1013.2 1012.7 0.0
02/08:30am 27.6 29.2 22.1 72 3.7 SSE 17 20 9 11 1012.9 1012.4 0.0
02/08:00am 26.8 28.7 22.0 75 3.2 SSE 15 20 8 11 1012.4 1012.0 0.0
02/07:30am 26.0 29.1 22.1 79 2.6 S 9 13 5 7 1012.1 1011.7 0.0
02/07:00am 24.8 27.3 21.7 83 2.1 SSE 11 17 6 9 1012.1 1011.7 0.0
02/06:30am 25.1 28.2 22.2 84 1.9 SSE 9 13 5 7 1011.9 1011.5 0.0
02/06:00am 24.3 26.3 21.6 85 1.8 SE 13 17 7 9 1011.6 1011.1 0.0
02/05:30am 24.0 25.7 21.7 87 1.5 SSE 15 19 8 10 1011.3 1010.8 0.0
02/05:00am 23.9 26.0 20.2 80 2.4 SSE 9 9 5 5 1010.9 1010.4 0.0
02/04:30am 24.1 28.0 20.4 80 2.4 CALM 0 0 0 0 1010.4 1009.9 0.0
02/04:00am 24.0 26.7 20.3 80 2.4 W 6 7 3 4 1010.1 1009.6 0.0
02/03:30am 24.2 26.7 20.3 79 2.5 NNW 7 7 4 4 1009.9 1009.4 0.0
02/03:00am 24.3 26.9 20.4 79 2.5 NNW 7 9 4 5 1009.9 1009.4 0.0
02/02:30am 24.2 26.4 20.5 80 2.4 N 9 11 5 6 1010.0 1009.5 0.0
02/02:00am 24.3 26.6 20.6 80 2.4 N 9 11 5 6 1010.0 1009.5 0.0
02/01:30am 24.1 26.4 20.6 81 2.3 NNW 9 11 5 6 1010.2 1009.7 0.0
02/01:00am 24.4 27.2 20.5 79 2.6 NNE 6 9 3 5 1010.4 1009.9 0.0
02/12:30am 24.4 26.6 20.5 79 2.6 NE 9 11 5 6 1010.6 1010.1 0.0
02/12:00am 24.5 26.8 20.6 79 2.6 NE 9 13 5 7 1010.5 1010.0 0.0
 
Date/Time
EST
Temp
°C
App
Temp
°C
Dew
Point
Rel
Hum
%
Delta-T
°C
Wind Press
QNH
hPa
Press
MSL
hPa
Rain
since 9 am
mm
Dir
 
Spd
km/h
Gust
km/h
Spd
kts
Gust
kts
01/11:30pm 24.6 26.6 20.7 79 2.6 N 11 15 6 8 1010.6 1010.1 0.0
01/11:00pm 24.7 25.6 20.8 79 2.6 N 17 22 9 12 1010.2 1009.7 0.0
01/10:30pm 24.7 25.2 20.8 79 2.6 N 19 22 10 12 1010.4 1009.9 0.0
01/10:00pm 24.7 26.0 20.8 79 2.6 N 15 19 8 10 1010.7 1010.2 0.0
01/09:30pm 24.7 25.2 20.8 79 2.6 NNE 19 22 10 12 1010.7 1010.2 0.0
01/09:00pm 24.7 24.9 20.6 78 2.7 NNE 20 24 11 13 1010.3 1009.8 0.0
01/08:30pm 24.6 24.9 20.3 77 2.8 NE 19 24 10 13 1010.1 1009.6 0.0
01/08:00pm 24.7 25.1 20.6 78 2.7 NE 19 24 10 13 1010.2 1009.7 0.0
01/07:30pm 24.7 24.9 20.6 78 2.7 NE 20 26 11 14 1009.7 1009.2 0.0
01/07:00pm 24.7 24.7 20.2 76 2.9 NE 20 24 11 13 1009.4 1008.9 0.0
01/06:30pm 24.7 24.7 20.2 76 2.9 NE 20 26 11 14 1009.0 1008.5 0.0
01/06:00pm 24.9 24.8 19.9 74 3.3 NE 20 24 11 13 1008.8 1008.3 0.0
01/05:30pm 25.1 25.0 19.9 73 3.4 NE 20 24 11 13 1008.6 1008.1 0.0
01/05:00pm 25.2 24.7 20.0 73 3.4 ENE 22 30 12 16 1008.5 1008.0 0.0
01/04:30pm 25.4 24.9 20.0 72 3.5 ENE 22 26 12 14 1008.4 1007.9 0.0
01/04:00pm 25.7 25.2 20.0 71 3.7 ENE 22 28 12 15 1008.3 1007.8 0.0
01/03:30pm 25.9 25.7 19.8 69 4.0 ENE 20 24 11 13 1008.5 1008.0 0.0
01/03:00pm 26.4 26.3 20.0 68 4.2 ENE 20 22 11 12 1008.8 1008.3 0.0
01/02:30pm 26.6 26.6 20.2 68 4.2 ENE 20 22 11 12 1009.0 1008.5 0.0
01/02:00pm 26.9 27.4 20.0 66 4.5 ENE 17 20 9 11 1009.4 1008.9 0.0
01/01:30pm 27.1 27.4 20.4 66 4.4 ENE 19 20 10 11 1009.7 1009.2 0.0

Other Formats:

Comma delimited format used in spreadsheet applications
http://www.bom.gov.au/fwo/IDQ60801/IDQ60801.94594.axf

JavaScript Object Notation format (JSON) in row-major order
http://www.bom.gov.au/fwo/IDQ60801/IDQ60801.94594.json